WMT8GC EKBI-LRCL
Flight info
| Callsign | WMT8GC |
|---|---|
| Flight time | N/A |
| Altitude | 35000 |
| Route | RIDSI DCT TUDLO DCT KOSEB DCT PEROM DCT BINKA DCT ROVEK DCT ADVAB DCT KELEL DCT ETNOG DCT LARMU |
| Aircraft | A321/M-SDE1E2E3FGIJ1J4RWXY/LB1 |
Departure
| Time | 2026-05-05 15:40 |
|---|---|
| Airport | Billund Airport (EKBI) |
Arrival
| Time | N/A |
|---|---|
| Airport | Avram Iancu Cluj International Airport (LRCL) |
| Time | Latitude | Longitude | Altitude | Speed | Heading |
|---|---|---|---|---|---|
| 2026-05-05 15:22 | 55.74522 | 9.14553 | 222 ft | 0 kts | 357° |
| 2026-05-05 15:30 | 55.74515 | 9.14554 | 219 ft | 4 kts | 357° |
| 2026-05-05 15:30 | 55.74488 | 9.14556 | 216 ft | 4 kts | 356° |
| 2026-05-05 15:30 | 55.74462 | 9.14565 | 224 ft | 4 kts | 331° |
| 2026-05-05 15:31 | 55.74445 | 9.14594 | 221 ft | 4 kts | 283° |
| 2026-05-05 15:31 | 55.74444 | 9.14612 | 219 ft | 0 kts | 266° |
| 2026-05-05 15:34 | 55.74443 | 9.14607 | 220 ft | 2 kts | 266° |
| 2026-05-05 15:34 | 55.74441 | 9.14537 | 223 ft | 9 kts | 265° |
| 2026-05-05 15:34 | 55.74397 | 9.14470 | 216 ft | 10 kts | 188° |
| 2026-05-05 15:34 | 55.74312 | 9.14475 | 216 ft | 14 kts | 176° |
| 2026-05-05 15:35 | 55.74202 | 9.14498 | 218 ft | 17 kts | 152° |
| 2026-05-05 15:35 | 55.74187 | 9.14705 | 216 ft | 18 kts | 89° |
| 2026-05-05 15:35 | 55.74196 | 9.15015 | 216 ft | 20 kts | 85° |
| 2026-05-05 15:35 | 55.74202 | 9.15180 | 216 ft | 20 kts | 86° |
| 2026-05-05 15:36 | 55.74211 | 9.15434 | 216 ft | 21 kts | 88° |
| 2026-05-05 15:36 | 55.74216 | 9.15699 | 216 ft | 22 kts | 88° |
| 2026-05-05 15:36 | 55.74225 | 9.15969 | 220 ft | 23 kts | 86° |
| 2026-05-05 15:36 | 55.74235 | 9.16252 | 223 ft | 23 kts | 86° |
| 2026-05-05 15:37 | 55.74245 | 9.16544 | 216 ft | 24 kts | 86° |
| 2026-05-05 15:37 | 55.74255 | 9.16844 | 222 ft | 25 kts | 86° |
| 2026-05-05 15:37 | 55.74262 | 9.17152 | 216 ft | 25 kts | 86° |
| 2026-05-05 15:37 | 55.74272 | 9.17467 | 216 ft | 26 kts | 86° |
| 2026-05-05 15:38 | 55.74282 | 9.17763 | 223 ft | 18 kts | 87° |
| 2026-05-05 15:38 | 55.74287 | 9.17960 | 216 ft | 11 kts | 87° |
| 2026-05-05 15:38 | 55.74273 | 9.18091 | 219 ft | 11 kts | 122° |
| 2026-05-05 15:38 | 55.74201 | 9.18149 | 216 ft | 12 kts | 177° |
| 2026-05-05 15:39 | 55.74121 | 9.18131 | 223 ft | 9 kts | 237° |
| 2026-05-05 15:39 | 55.74118 | 9.18020 | 219 ft | 4 kts | 268° |
| 2026-05-05 15:39 | 55.74118 | 9.18003 | 222 ft | 7 kts | 268° |
| 2026-05-05 15:39 | 55.74104 | 9.17450 | 216 ft | 82 kts | 267° |
| 2026-05-05 15:40 | 55.74061 | 9.16050 | 217 ft | 142 kts | 267° |
| 2026-05-05 15:40 | 55.73998 | 9.14108 | 573 ft | 161 kts | 269° |
| 2026-05-05 15:40 | 55.74056 | 9.12146 | 1288 ft | 161 kts | 297° |
| 2026-05-05 15:40 | 55.74878 | 9.10831 | 1725 ft | 172 kts | 345° |
| 2026-05-05 15:41 | 55.76114 | 9.11012 | 2047 ft | 194 kts | 27° |
| 2026-05-05 15:41 | 55.77241 | 9.12571 | 2338 ft | 218 kts | 40° |
| 2026-05-05 15:41 | 55.78444 | 9.14468 | 2654 ft | 243 kts | 41° |
| 2026-05-05 15:41 | 55.79591 | 9.16759 | 3279 ft | 255 kts | 59° |
| 2026-05-05 15:42 | 55.80080 | 9.19810 | 4054 ft | 263 kts | 87° |
| 2026-05-05 15:42 | 55.79667 | 9.22984 | 4865 ft | 270 kts | 116° |
| 2026-05-05 15:42 | 55.78674 | 9.25847 | 5706 ft | 273 kts | 121° |
| 2026-05-05 15:42 | 55.77644 | 9.28692 | 6602 ft | 275 kts | 122° |
| 2026-05-05 15:43 | 55.76595 | 9.31581 | 7302 ft | 281 kts | 123° |
| 2026-05-05 15:43 | 55.75531 | 9.34522 | 8033 ft | 286 kts | 123° |
| 2026-05-05 15:43 | 55.74448 | 9.37529 | 8742 ft | 292 kts | 124° |
| 2026-05-05 15:43 | 55.73344 | 9.40601 | 9446 ft | 299 kts | 124° |
| 2026-05-05 15:44 | 55.72231 | 9.43697 | 10085 ft | 305 kts | 125° |
| 2026-05-05 15:44 | 55.71045 | 9.46985 | 10328 ft | 328 kts | 125° |
| 2026-05-05 15:44 | 55.69770 | 9.50507 | 10487 ft | 350 kts | 125° |
| 2026-05-05 15:44 | 55.68436 | 9.54192 | 10960 ft | 359 kts | 125° |
| 2026-05-05 15:45 | 55.67079 | 9.57942 | 11597 ft | 364 kts | 125° |
| 2026-05-05 15:45 | 55.65705 | 9.61741 | 12254 ft | 368 kts | 126° |
| 2026-05-05 15:45 | 55.64319 | 9.65576 | 12903 ft | 372 kts | 126° |
| 2026-05-05 15:45 | 55.62914 | 9.69456 | 13551 ft | 376 kts | 126° |
| 2026-05-05 15:46 | 55.61492 | 9.73368 | 14143 ft | 380 kts | 126° |
| 2026-05-05 15:46 | 55.60056 | 9.77313 | 14730 ft | 384 kts | 126° |
| 2026-05-05 15:46 | 55.58602 | 9.81293 | 15313 ft | 387 kts | 127° |
| 2026-05-05 15:46 | 55.57132 | 9.85313 | 15897 ft | 391 kts | 127° |
| 2026-05-05 15:47 | 55.55649 | 9.89361 | 16491 ft | 395 kts | 127° |
| 2026-05-05 15:47 | 55.54658 | 9.92061 | 16876 ft | 397 kts | 127° |
| 2026-05-05 15:47 | 55.52636 | 9.97569 | 17642 ft | 402 kts | 127° |
| 2026-05-05 15:47 | 55.51107 | 10.01731 | 18217 ft | 406 kts | 127° |
| 2026-05-05 15:48 | 55.49563 | 10.05920 | 18705 ft | 409 kts | 127° |
| 2026-05-05 15:48 | 55.48004 | 10.10139 | 19226 ft | 412 kts | 127° |
| 2026-05-05 15:48 | 55.46431 | 10.14380 | 19743 ft | 415 kts | 127° |
| 2026-05-05 15:48 | 55.44847 | 10.18650 | 20267 ft | 418 kts | 127° |
| 2026-05-05 15:49 | 55.43250 | 10.22949 | 20790 ft | 421 kts | 127° |
| 2026-05-05 15:49 | 55.41642 | 10.27276 | 21321 ft | 424 kts | 127° |
| 2026-05-05 15:49 | 55.40020 | 10.31631 | 21839 ft | 427 kts | 127° |
| 2026-05-05 15:49 | 55.38388 | 10.36008 | 22339 ft | 430 kts | 127° |
| 2026-05-05 15:50 | 55.36741 | 10.40415 | 22829 ft | 433 kts | 127° |
| 2026-05-05 15:50 | 55.35083 | 10.44845 | 23298 ft | 435 kts | 127° |
| 2026-05-05 15:50 | 55.33413 | 10.49308 | 23723 ft | 438 kts | 127° |
| 2026-05-05 15:50 | 55.31734 | 10.53781 | 24138 ft | 439 kts | 127° |
| 2026-05-05 15:51 | 55.30042 | 10.58265 | 24557 ft | 441 kts | 127° |
| 2026-05-05 15:51 | 55.28349 | 10.62762 | 24960 ft | 444 kts | 126° |
| 2026-05-05 15:51 | 55.26892 | 10.67573 | 25349 ft | 450 kts | 116° |
| 2026-05-05 15:51 | 55.25666 | 10.72637 | 25727 ft | 452 kts | 116° |
| 2026-05-05 15:52 | 55.24432 | 10.77721 | 26123 ft | 454 kts | 116° |
| 2026-05-05 15:52 | 55.23186 | 10.82818 | 26497 ft | 456 kts | 116° |
| 2026-05-05 15:52 | 55.21928 | 10.87932 | 26870 ft | 458 kts | 116° |
| 2026-05-05 15:52 | 55.20661 | 10.93068 | 27242 ft | 460 kts | 116° |
| 2026-05-05 15:53 | 55.19390 | 10.98220 | 27611 ft | 462 kts | 116° |
| 2026-05-05 15:53 | 55.18109 | 11.03396 | 27987 ft | 464 kts | 116° |
| 2026-05-05 15:53 | 55.16824 | 11.08587 | 28333 ft | 466 kts | 116° |
| 2026-05-05 15:53 | 55.15547 | 11.13730 | 28679 ft | 468 kts | 116° |
| 2026-05-05 15:54 | 55.14242 | 11.18958 | 29025 ft | 470 kts | 117° |
| 2026-05-05 15:54 | 55.12928 | 11.24203 | 29359 ft | 472 kts | 116° |
| 2026-05-05 15:54 | 55.11611 | 11.29473 | 29696 ft | 474 kts | 116° |
| 2026-05-05 15:54 | 55.10288 | 11.34762 | 30021 ft | 476 kts | 116° |
| 2026-05-05 15:55 | 55.08957 | 11.40072 | 30300 ft | 478 kts | 116° |
| 2026-05-05 15:55 | 55.07617 | 11.45395 | 30598 ft | 480 kts | 117° |
| 2026-05-05 15:55 | 55.06269 | 11.50727 | 30921 ft | 480 kts | 117° |
| 2026-05-05 15:55 | 55.04922 | 11.56046 | 31317 ft | 479 kts | 116° |
| 2026-05-05 15:56 | 55.03577 | 11.61348 | 31732 ft | 477 kts | 116° |
| 2026-05-05 15:56 | 55.02237 | 11.66623 | 32141 ft | 476 kts | 117° |
| 2026-05-05 15:56 | 55.00895 | 11.71890 | 32530 ft | 475 kts | 117° |
| 2026-05-05 15:56 | 54.99555 | 11.77129 | 32918 ft | 474 kts | 117° |
| 2026-05-05 15:57 | 54.98213 | 11.82360 | 33289 ft | 473 kts | 117° |
| 2026-05-05 15:57 | 54.96873 | 11.87577 | 33666 ft | 472 kts | 117° |
| 2026-05-05 15:57 | 54.95533 | 11.92786 | 34019 ft | 471 kts | 117° |
| 2026-05-05 15:57 | 54.94193 | 11.97978 | 34309 ft | 471 kts | 117° |
| 2026-05-05 15:58 | 54.92848 | 12.03170 | 34583 ft | 471 kts | 117° |
| 2026-05-05 15:58 | 54.91501 | 12.08358 | 34793 ft | 472 kts | 117° |
| 2026-05-05 15:58 | 54.90147 | 12.13564 | 34898 ft | 473 kts | 117° |
| 2026-05-05 15:59 | 54.87444 | 12.23958 | 34925 ft | 471 kts | 118° |
| 2026-05-05 15:59 | 54.84735 | 12.34293 | 34926 ft | 470 kts | 118° |
| 2026-05-05 16:00 | 54.82012 | 12.44616 | 34924 ft | 470 kts | 118° |
| 2026-05-05 16:00 | 54.79269 | 12.54900 | 34925 ft | 469 kts | 121° |
| 2026-05-05 16:01 | 54.75534 | 12.63988 | 34917 ft | 460 kts | 139° |
| 2026-05-05 16:01 | 54.70965 | 12.71720 | 34918 ft | 460 kts | 140° |
| 2026-05-05 16:02 | 54.66393 | 12.79467 | 34917 ft | 461 kts | 140° |
| 2026-05-05 16:02 | 54.61816 | 12.87210 | 34921 ft | 461 kts | 140° |
| 2026-05-05 16:03 | 54.57230 | 12.94941 | 34928 ft | 461 kts | 140° |
| 2026-05-05 16:03 | 54.52628 | 13.02657 | 34882 ft | 462 kts | 141° |
| 2026-05-05 16:04 | 54.47998 | 13.10375 | 34892 ft | 464 kts | 141° |
| 2026-05-05 16:04 | 54.43378 | 13.18050 | 34900 ft | 466 kts | 141° |
| 2026-05-05 16:05 | 54.38689 | 13.25850 | 34912 ft | 466 kts | 141° |
| 2026-05-05 16:05 | 54.34054 | 13.33536 | 34922 ft | 467 kts | 142° |
| 2026-05-05 16:06 | 54.29378 | 13.41243 | 34927 ft | 466 kts | 142° |
| 2026-05-05 16:06 | 54.24697 | 13.48935 | 34890 ft | 467 kts | 142° |
| 2026-05-05 16:07 | 54.20006 | 13.56620 | 34895 ft | 467 kts | 142° |
| 2026-05-05 16:07 | 54.15300 | 13.64295 | 34908 ft | 468 kts | 142° |
| 2026-05-05 16:08 | 54.10585 | 13.71963 | 34926 ft | 469 kts | 142° |
| 2026-05-05 16:08 | 54.05860 | 13.79615 | 34930 ft | 469 kts | 142° |
| 2026-05-05 16:09 | 54.01129 | 13.87261 | 34927 ft | 469 kts | 142° |
| 2026-05-05 16:09 | 53.96398 | 13.94893 | 34927 ft | 469 kts | 142° |
| 2026-05-05 16:10 | 53.91660 | 14.02496 | 34910 ft | 468 kts | 143° |
| 2026-05-05 16:10 | 53.86928 | 14.10060 | 34931 ft | 467 kts | 143° |
| 2026-05-05 16:11 | 53.82208 | 14.17613 | 34933 ft | 466 kts | 143° |
| 2026-05-05 16:12 | 53.72772 | 14.32621 | 34922 ft | 465 kts | 143° |
| 2026-05-05 16:13 | 53.61079 | 14.51426 | 34889 ft | 464 kts | 142° |
| 2026-05-05 16:13 | 53.56404 | 14.58887 | 34908 ft | 463 kts | 143° |
| 2026-05-05 16:14 | 53.47058 | 14.73724 | 34893 ft | 462 kts | 143° |
| 2026-05-05 16:15 | 53.37686 | 14.88483 | 34891 ft | 462 kts | 143° |
| 2026-05-05 16:16 | 53.29031 | 15.01802 | 34867 ft | 461 kts | 143° |
| 2026-05-05 16:17 | 53.21140 | 15.13807 | 34875 ft | 462 kts | 143° |
| 2026-05-05 16:18 | 53.14783 | 15.23468 | 34881 ft | 462 kts | 143° |
| 2026-05-05 16:19 | 53.07643 | 15.34281 | 34887 ft | 463 kts | 144° |
| 2026-05-05 16:19 | 53.00488 | 15.45040 | 34864 ft | 462 kts | 144° |
| 2026-05-05 16:20 | 52.90970 | 15.59276 | 34866 ft | 462 kts | 144° |
| 2026-05-05 16:22 | 52.79025 | 15.77063 | 34866 ft | 462 kts | 144° |
| 2026-05-05 16:23 | 52.69448 | 15.91183 | 34863 ft | 461 kts | 144° |
| 2026-05-05 16:23 | 52.62270 | 16.01717 | 34855 ft | 460 kts | 143° |
| 2026-05-05 16:24 | 52.57496 | 16.08704 | 34862 ft | 459 kts | 144° |
| 2026-05-05 16:25 | 52.50342 | 16.19130 | 34852 ft | 458 kts | 144° |
| 2026-05-05 16:25 | 52.43188 | 16.29509 | 34856 ft | 458 kts | 144° |
| 2026-05-05 16:26 | 52.33630 | 16.43299 | 34865 ft | 458 kts | 144° |
| 2026-05-05 16:27 | 52.28849 | 16.50165 | 34859 ft | 458 kts | 144° |
| 2026-05-05 16:27 | 52.24062 | 16.57025 | 34839 ft | 458 kts | 144° |
| 2026-05-05 16:28 | 52.19267 | 16.63870 | 34837 ft | 458 kts | 144° |
| 2026-05-05 16:28 | 52.14469 | 16.70712 | 34831 ft | 458 kts | 144° |
| 2026-05-05 16:29 | 52.09615 | 16.77427 | 34827 ft | 457 kts | 146° |
| 2026-05-05 16:29 | 52.04696 | 16.83869 | 34828 ft | 457 kts | 147° |
| 2026-05-05 16:30 | 51.99722 | 16.90308 | 34796 ft | 458 kts | 146° |
| 2026-05-05 16:30 | 51.94757 | 16.96803 | 34805 ft | 459 kts | 145° |
| 2026-05-05 16:31 | 51.89786 | 17.03334 | 34796 ft | 460 kts | 145° |
| 2026-05-05 16:31 | 51.84806 | 17.09847 | 34813 ft | 460 kts | 145° |
| 2026-05-05 16:32 | 51.79811 | 17.16334 | 34814 ft | 461 kts | 146° |
| 2026-05-05 16:32 | 51.74808 | 17.22809 | 34804 ft | 461 kts | 145° |
| 2026-05-05 16:33 | 51.69809 | 17.29260 | 34806 ft | 460 kts | 145° |
| 2026-05-05 16:33 | 51.64824 | 17.35701 | 34820 ft | 459 kts | 145° |
| 2026-05-05 16:34 | 51.59838 | 17.42121 | 34827 ft | 459 kts | 145° |
| 2026-05-05 16:34 | 51.54856 | 17.48515 | 34818 ft | 458 kts | 145° |
| 2026-05-05 16:35 | 51.49873 | 17.54888 | 34816 ft | 458 kts | 145° |
| 2026-05-05 16:35 | 51.44893 | 17.61236 | 34808 ft | 457 kts | 145° |
| 2026-05-05 16:36 | 51.39906 | 17.67571 | 34796 ft | 457 kts | 145° |
| 2026-05-05 16:36 | 51.34926 | 17.73890 | 34799 ft | 457 kts | 145° |
| 2026-05-05 16:37 | 51.29948 | 17.80189 | 34801 ft | 456 kts | 145° |
| 2026-05-05 16:37 | 51.24968 | 17.86465 | 34793 ft | 456 kts | 145° |
| 2026-05-05 16:38 | 51.19981 | 17.92727 | 34790 ft | 456 kts | 145° |
| 2026-05-05 16:38 | 51.14995 | 17.98965 | 34792 ft | 455 kts | 145° |
| 2026-05-05 16:39 | 51.10010 | 18.05183 | 34791 ft | 455 kts | 145° |
| 2026-05-05 16:39 | 51.05034 | 18.11389 | 34797 ft | 455 kts | 145° |
| 2026-05-05 16:40 | 51.00057 | 18.17583 | 34794 ft | 454 kts | 145° |
| 2026-05-05 16:40 | 50.95076 | 18.23750 | 34790 ft | 454 kts | 145° |
| 2026-05-05 16:41 | 50.90131 | 18.29850 | 34795 ft | 453 kts | 145° |
| 2026-05-05 16:41 | 50.85162 | 18.35975 | 34809 ft | 452 kts | 145° |
| 2026-05-05 16:42 | 50.80196 | 18.42082 | 34801 ft | 452 kts | 145° |
| 2026-05-05 16:42 | 50.75240 | 18.48165 | 34824 ft | 451 kts | 145° |
| 2026-05-05 16:43 | 50.70282 | 18.54228 | 34818 ft | 450 kts | 145° |
| 2026-05-05 16:43 | 50.65325 | 18.60253 | 34821 ft | 450 kts | 145° |
| 2026-05-05 16:44 | 50.60368 | 18.66266 | 34817 ft | 450 kts | 145° |
| 2026-05-05 16:44 | 50.55416 | 18.72275 | 34823 ft | 450 kts | 145° |
| 2026-05-05 16:45 | 50.50462 | 18.78274 | 34815 ft | 449 kts | 145° |
| 2026-05-05 16:45 | 50.45505 | 18.84250 | 34823 ft | 449 kts | 145° |
| 2026-05-05 16:46 | 50.40540 | 18.90203 | 34821 ft | 449 kts | 145° |
| 2026-05-05 16:46 | 50.35577 | 18.96155 | 34829 ft | 449 kts | 145° |
| 2026-05-05 16:47 | 50.30611 | 19.02093 | 34829 ft | 449 kts | 145° |
| 2026-05-05 16:47 | 50.25644 | 19.08021 | 34830 ft | 449 kts | 145° |
| 2026-05-05 16:48 | 50.20673 | 19.13934 | 34829 ft | 449 kts | 145° |
| 2026-05-05 16:48 | 50.15779 | 19.19746 | 34835 ft | 449 kts | 145° |
| 2026-05-05 16:49 | 50.10803 | 19.25633 | 34850 ft | 449 kts | 145° |
| 2026-05-05 16:49 | 50.05828 | 19.31498 | 34860 ft | 448 kts | 145° |
| 2026-05-05 16:50 | 50.00853 | 19.37348 | 34867 ft | 448 kts | 145° |
| 2026-05-05 16:50 | 49.95877 | 19.43189 | 34870 ft | 448 kts | 145° |
| 2026-05-05 16:51 | 49.90900 | 19.49019 | 34873 ft | 448 kts | 145° |
| 2026-05-05 16:51 | 49.86256 | 19.54442 | 34870 ft | 449 kts | 145° |
| 2026-05-05 16:52 | 49.81259 | 19.60255 | 34883 ft | 450 kts | 145° |
| 2026-05-05 16:52 | 49.76255 | 19.66060 | 34890 ft | 450 kts | 145° |
| 2026-05-05 16:53 | 49.71248 | 19.71862 | 34905 ft | 450 kts | 146° |
| 2026-05-05 16:53 | 49.66240 | 19.77657 | 34907 ft | 450 kts | 146° |
| 2026-05-05 16:54 | 49.61229 | 19.83430 | 34925 ft | 449 kts | 146° |
| 2026-05-05 16:54 | 49.56223 | 19.89183 | 34923 ft | 449 kts | 145° |
| 2026-05-05 16:55 | 49.51208 | 19.94931 | 34930 ft | 449 kts | 145° |
| 2026-05-05 16:55 | 49.46194 | 20.00655 | 34931 ft | 449 kts | 146° |
| 2026-05-05 16:56 | 49.41174 | 20.06377 | 34936 ft | 449 kts | 145° |
| 2026-05-05 16:56 | 49.36158 | 20.12085 | 34947 ft | 449 kts | 147° |
| 2026-05-05 16:57 | 49.31128 | 20.17775 | 34950 ft | 449 kts | 147° |
| 2026-05-05 16:57 | 49.26104 | 20.23465 | 34963 ft | 449 kts | 147° |
| 2026-05-05 16:58 | 49.21080 | 20.29135 | 34971 ft | 449 kts | 145° |
| 2026-05-05 16:58 | 49.16054 | 20.34778 | 34969 ft | 448 kts | 145° |
| 2026-05-05 16:59 | 49.11034 | 20.40407 | 34972 ft | 447 kts | 146° |
| 2026-05-05 16:59 | 49.06013 | 20.46019 | 34970 ft | 447 kts | 146° |
| 2026-05-05 17:00 | 49.00989 | 20.51610 | 34959 ft | 447 kts | 146° |
| 2026-05-05 17:00 | 48.96000 | 20.57158 | 34963 ft | 447 kts | 146° |
| 2026-05-05 17:01 | 48.90978 | 20.62748 | 34960 ft | 447 kts | 146° |
| 2026-05-05 17:01 | 48.85953 | 20.68321 | 34962 ft | 447 kts | 146° |
| 2026-05-05 17:02 | 48.80925 | 20.73872 | 34953 ft | 447 kts | 146° |
| 2026-05-05 17:02 | 48.75895 | 20.79403 | 34950 ft | 447 kts | 146° |
| 2026-05-05 17:03 | 48.70865 | 20.84926 | 34944 ft | 446 kts | 147° |
| 2026-05-05 17:03 | 48.65837 | 20.90436 | 34939 ft | 446 kts | 146° |
| 2026-05-05 17:04 | 48.60810 | 20.95924 | 34944 ft | 446 kts | 146° |
| 2026-05-05 17:04 | 48.56630 | 21.00476 | 34944 ft | 445 kts | 145° |
| 2026-05-05 17:05 | 48.51606 | 21.05946 | 34939 ft | 445 kts | 146° |
| 2026-05-05 17:05 | 48.46584 | 21.11404 | 34934 ft | 445 kts | 146° |
| 2026-05-05 17:06 | 48.41551 | 21.16848 | 34921 ft | 446 kts | 146° |
| 2026-05-05 17:06 | 48.36508 | 21.22287 | 34920 ft | 447 kts | 146° |
| 2026-05-05 17:07 | 48.31449 | 21.27734 | 34925 ft | 448 kts | 145° |
| 2026-05-05 17:07 | 48.26380 | 21.33176 | 34931 ft | 448 kts | 146° |
| 2026-05-05 17:08 | 48.21314 | 21.38612 | 34937 ft | 448 kts | 146° |
| 2026-05-05 17:08 | 48.16242 | 21.44050 | 34936 ft | 448 kts | 146° |
| 2026-05-05 17:09 | 48.11168 | 21.49474 | 34943 ft | 448 kts | 146° |